sensor_id;sensor_type;location;lat;lon;timestamp;P1;durP1;ratioP1;P2;durP2;ratioP2
68353;SDS011;55274;43.060;25.618;2023-12-22T00:01:30;30.35;;;12.77;;
68353;SDS011;55274;43.060;25.618;2023-12-22T00:03:56;26.48;;;11.43;;
68353;SDS011;55274;43.060;25.618;2023-12-22T00:06:22;31.20;;;12.38;;
68353;SDS011;55274;43.060;25.618;2023-12-22T00:08:47;32.45;;;12.95;;
68353;SDS011;55274;43.060;25.618;2023-12-22T00:11:13;32.58;;;12.93;;
68353;SDS011;55274;43.060;25.618;2023-12-22T00:13:39;32.58;;;12.88;;
68353;SDS011;55274;43.060;25.618;2023-12-22T00:16:05;32.58;;;13.10;;
68353;SDS011;55274;43.060;25.618;2023-12-22T00:18:31;35.63;;;14.32;;
68353;SDS011;55274;43.060;25.618;2023-12-22T00:20:56;33.55;;;13.65;;
68353;SDS011;55274;43.060;25.618;2023-12-22T00:23:22;38.17;;;13.00;;
68353;SDS011;55274;43.060;25.618;2023-12-22T00:25:48;31.88;;;13.70;;
68353;SDS011;55274;43.060;25.618;2023-12-22T00:28:14;30.63;;;12.68;;
68353;SDS011;55274;43.060;25.618;2023-12-22T00:30:40;34.92;;;13.65;;
68353;SDS011;55274;43.060;25.618;2023-12-22T00:33:06;28.70;;;12.65;;
68353;SDS011;55274;43.060;25.618;2023-12-22T00:35:31;27.70;;;12.82;;
68353;SDS011;55274;43.060;25.618;2023-12-22T00:37:58;34.92;;;13.88;;
68353;SDS011;55274;43.060;25.618;2023-12-22T00:40:23;29.42;;;12.15;;
68353;SDS011;55274;43.060;25.618;2023-12-22T00:42:49;33.75;;;12.77;;
68353;SDS011;55274;43.060;25.618;2023-12-22T00:45:15;31.30;;;11.90;;
68353;SDS011;55274;43.060;25.618;2023-12-22T00:47:41;32.05;;;12.52;;
68353;SDS011;55274;43.060;25.618;2023-12-22T00:50:06;29.75;;;11.63;;
68353;SDS011;55274;43.060;25.618;2023-12-22T00:52:33;36.20;;;12.18;;
68353;SDS011;55274;43.060;25.618;2023-12-22T00:54:59;34.33;;;12.45;;
68353;SDS011;55274;43.060;25.618;2023-12-22T00:57:24;26.60;;;11.52;;
68353;SDS011;55274;43.060;25.618;2023-12-22T00:59:50;29.58;;;12.57;;
68353;SDS011;55274;43.060;25.618;2023-12-22T01:02:16;26.60;;;11.60;;
68353;SDS011;55274;43.060;25.618;2023-12-22T01:04:43;35.22;;;12.20;;
68353;SDS011;55274;43.060;25.618;2023-12-22T01:07:09;26.05;;;11.23;;
68353;SDS011;55274;43.060;25.618;2023-12-22T01:09:35;28.13;;;12.38;;
68353;SDS011;55274;43.060;25.618;2023-12-22T01:12:03;29.00;;;12.50;;
68353;SDS011;55274;43.060;25.618;2023-12-22T01:14:29;39.63;;;12.35;;
68353;SDS011;55274;43.060;25.618;2023-12-22T01:16:55;31.17;;;10.93;;
68353;SDS011;55274;43.060;25.618;2023-12-22T01:19:21;31.35;;;11.55;;
68353;SDS011;55274;43.060;25.618;2023-12-22T01:21:47;23.58;;;10.85;;
68353;SDS011;55274;43.060;25.618;2023-12-22T01:24:14;24.73;;;10.50;;
68353;SDS011;55274;43.060;25.618;2023-12-22T01:26:40;22.88;;;10.60;;
68353;SDS011;55274;43.060;25.618;2023-12-22T01:29:06;23.35;;;10.60;;
68353;SDS011;55274;43.060;25.618;2023-12-22T01:31:32;26.55;;;11.27;;
68353;SDS011;55274;43.060;25.618;2023-12-22T01:33:57;33.17;;;11.15;;
68353;SDS011;55274;43.060;25.618;2023-12-22T01:36:23;28.83;;;10.15;;
68353;SDS011;55274;43.060;25.618;2023-12-22T01:38:49;26.95;;;11.25;;
68353;SDS011;55274;43.060;25.618;2023-12-22T01:41:15;24.98;;;9.88;;
68353;SDS011;55274;43.060;25.618;2023-12-22T01:43:40;22.23;;;10.63;;
68353;SDS011;55274;43.060;25.618;2023-12-22T01:46:06;25.17;;;10.43;;
68353;SDS011;55274;43.060;25.618;2023-12-22T01:48:33;25.48;;;10.57;;
68353;SDS011;55274;43.060;25.618;2023-12-22T01:51:01;24.30;;;10.93;;
68353;SDS011;55274;43.060;25.618;2023-12-22T01:53:27;23.90;;;9.82;;
68353;SDS011;55274;43.060;25.618;2023-12-22T01:55:54;24.40;;;11.32;;
68353;SDS011;55274;43.060;25.618;2023-12-22T01:58:22;25.98;;;10.77;;
68353;SDS011;55274;43.060;25.618;2023-12-22T02:00:48;36.63;;;9.77;;
68353;SDS011;55274;43.060;25.618;2023-12-22T02:03:14;29.52;;;10.30;;
68353;SDS011;55274;43.060;25.618;2023-12-22T02:05:42;29.80;;;10.90;;
68353;SDS011;55274;43.060;25.618;2023-12-22T02:08:11;30.77;;;12.02;;
68353;SDS011;55274;43.060;25.618;2023-12-22T02:10:37;29.10;;;11.57;;
68353;SDS011;55274;43.060;25.618;2023-12-22T02:13:07;26.67;;;11.38;;
68353;SDS011;55274;43.060;25.618;2023-12-22T02:15:34;34.08;;;11.77;;
68353;SDS011;55274;43.060;25.618;2023-12-22T02:18:14;25.27;;;11.43;;
68353;SDS011;55274;43.060;25.618;2023-12-22T02:20:46;31.40;;;11.05;;
68353;SDS011;55274;43.060;25.618;2023-12-22T02:23:12;28.63;;;11.30;;
68353;SDS011;55274;43.060;25.618;2023-12-22T02:25:38;31.83;;;12.20;;
68353;SDS011;55274;43.060;25.618;2023-12-22T02:28:05;30.08;;;13.05;;
68353;SDS011;55274;43.060;25.618;2023-12-22T02:30:37;29.52;;;12.68;;
68353;SDS011;55274;43.060;25.618;2023-12-22T02:33:04;35.45;;;13.13;;
68353;SDS011;55274;43.060;25.618;2023-12-22T02:35:33;30.88;;;12.90;;
68353;SDS011;55274;43.060;25.618;2023-12-22T02:38:01;29.23;;;12.43;;
68353;SDS011;55274;43.060;25.618;2023-12-22T02:40:28;36.67;;;13.85;;
68353;SDS011;55274;43.060;25.618;2023-12-22T02:42:56;32.13;;;13.20;;
68353;SDS011;55274;43.060;25.618;2023-12-22T02:45:22;39.05;;;14.05;;
68353;SDS011;55274;43.060;25.618;2023-12-22T02:47:47;33.00;;;12.57;;
68353;SDS011;55274;43.060;25.618;2023-12-22T02:50:13;38.50;;;13.48;;
68353;SDS011;55274;43.060;25.618;2023-12-22T02:52:41;19.00;;;9.18;;
68353;SDS011;55274;43.060;25.618;2023-12-22T02:55:07;26.48;;;10.55;;
68353;SDS011;55274;43.060;25.618;2023-12-22T02:57:33;25.23;;;9.70;;
68353;SDS011;55274;43.060;25.618;2023-12-22T02:59:59;27.50;;;8.88;;
68353;SDS011;55274;43.060;25.618;2023-12-22T03:02:25;30.30;;;9.88;;
68353;SDS011;55274;43.060;25.618;2023-12-22T03:04:51;27.08;;;9.43;;
68353;SDS011;55274;43.060;25.618;2023-12-22T03:07:17;23.80;;;9.82;;
68353;SDS011;55274;43.060;25.618;2023-12-22T03:09:43;25.58;;;9.57;;
68353;SDS011;55274;43.060;25.618;2023-12-22T03:12:09;23.42;;;10.32;;
68353;SDS011;55274;43.060;25.618;2023-12-22T03:14:35;27.30;;;10.90;;
68353;SDS011;55274;43.060;25.618;2023-12-22T03:17:02;22.80;;;9.75;;
68353;SDS011;55274;43.060;25.618;2023-12-22T03:19:29;30.90;;;10.57;;
68353;SDS011;55274;43.060;25.618;2023-12-22T03:21:55;30.70;;;9.18;;
68353;SDS011;55274;43.060;25.618;2023-12-22T03:24:24;22.92;;;8.45;;
68353;SDS011;55274;43.060;25.618;2023-12-22T03:26:51;22.17;;;8.68;;
68353;SDS011;55274;43.060;25.618;2023-12-22T03:29:17;24.85;;;7.78;;
68353;SDS011;55274;43.060;25.618;2023-12-22T03:31:43;22.15;;;9.25;;
68353;SDS011;55274;43.060;25.618;2023-12-22T03:34:09;21.60;;;8.93;;
68353;SDS011;55274;43.060;25.618;2023-12-22T03:36:35;24.58;;;8.57;;
68353;SDS011;55274;43.060;25.618;2023-12-22T03:39:01;23.58;;;8.95;;
68353;SDS011;55274;43.060;25.618;2023-12-22T03:41:28;22.27;;;9.10;;
68353;SDS011;55274;43.060;25.618;2023-12-22T03:43:54;17.33;;;7.80;;
68353;SDS011;55274;43.060;25.618;2023-12-22T03:46:20;30.05;;;9.82;;
68353;SDS011;55274;43.060;25.618;2023-12-22T03:48:46;32.33;;;10.02;;
68353;SDS011;55274;43.060;25.618;2023-12-22T03:51:12;28.48;;;8.85;;
68353;SDS011;55274;43.060;25.618;2023-12-22T03:53:40;14.15;;;7.47;;
68353;SDS011;55274;43.060;25.618;2023-12-22T03:56:07;15.30;;;7.25;;
68353;SDS011;55274;43.060;25.618;2023-12-22T03:58:34;14.35;;;6.72;;
68353;SDS011;55274;43.060;25.618;2023-12-22T04:01:00;14.55;;;6.20;;
68353;SDS011;55274;43.060;25.618;2023-12-22T04:03:26;15.15;;;6.70;;
68353;SDS011;55274;43.060;25.618;2023-12-22T04:05:52;18.45;;;7.57;;
68353;SDS011;55274;43.060;25.618;2023-12-22T04:08:17;19.80;;;8.02;;
68353;SDS011;55274;43.060;25.618;2023-12-22T04:10:45;69.47;;;11.23;;
68353;SDS011;55274;43.060;25.618;2023-12-22T04:13:11;32.13;;;8.10;;
68353;SDS011;55274;43.060;25.618;2023-12-22T04:15:37;18.15;;;6.95;;
68353;SDS011;55274;43.060;25.618;2023-12-22T04:18:03;18.50;;;7.07;;
68353;SDS011;55274;43.060;25.618;2023-12-22T04:20:29;14.73;;;7.15;;
68353;SDS011;55274;43.060;25.618;2023-12-22T04:22:55;16.50;;;6.80;;
68353;SDS011;55274;43.060;25.618;2023-12-22T04:25:21;15.65;;;6.90;;
68353;SDS011;55274;43.060;25.618;2023-12-22T04:27:48;14.32;;;7.32;;
68353;SDS011;55274;43.060;25.618;2023-12-22T04:30:14;20.15;;;7.47;;
68353;SDS011;55274;43.060;25.618;2023-12-22T04:32:40;29.60;;;8.13;;
68353;SDS011;55274;43.060;25.618;2023-12-22T04:35:06;18.08;;;7.05;;
68353;SDS011;55274;43.060;25.618;2023-12-22T04:37:32;15.05;;;7.25;;
68353;SDS011;55274;43.060;25.618;2023-12-22T04:39:58;18.13;;;7.75;;
68353;SDS011;55274;43.060;25.618;2023-12-22T04:42:24;17.58;;;8.07;;
68353;SDS011;55274;43.060;25.618;2023-12-22T04:44:51;19.45;;;8.32;;
68353;SDS011;55274;43.060;25.618;2023-12-22T04:47:19;23.50;;;7.68;;
68353;SDS011;55274;43.060;25.618;2023-12-22T04:49:45;17.92;;;6.95;;
68353;SDS011;55274;43.060;25.618;2023-12-22T04:52:11;17.42;;;8.05;;
68353;SDS011;55274;43.060;25.618;2023-12-22T04:54:38;21.02;;;8.77;;
68353;SDS011;55274;43.060;25.618;2023-12-22T04:57:04;23.70;;;7.60;;
68353;SDS011;55274;43.060;25.618;2023-12-22T04:59:30;21.27;;;8.00;;
68353;SDS011;55274;43.060;25.618;2023-12-22T05:01:56;21.98;;;8.43;;
68353;SDS011;55274;43.060;25.618;2023-12-22T05:04:22;21.35;;;8.75;;
68353;SDS011;55274;43.060;25.618;2023-12-22T05:06:48;25.42;;;8.13;;
68353;SDS011;55274;43.060;25.618;2023-12-22T05:09:14;23.08;;;8.43;;
68353;SDS011;55274;43.060;25.618;2023-12-22T05:11:40;27.23;;;9.70;;
68353;SDS011;55274;43.060;25.618;2023-12-22T05:14:06;22.05;;;9.70;;
68353;SDS011;55274;43.060;25.618;2023-12-22T05:16:32;22.40;;;8.13;;
68353;SDS011;55274;43.060;25.618;2023-12-22T05:18:58;25.58;;;9.98;;
68353;SDS011;55274;43.060;25.618;2023-12-22T05:21:24;25.60;;;9.73;;
68353;SDS011;55274;43.060;25.618;2023-12-22T05:23:50;34.15;;;9.52;;
68353;SDS011;55274;43.060;25.618;2023-12-22T05:26:22;18.73;;;8.80;;
68353;SDS011;55274;43.060;25.618;2023-12-22T05:28:49;22.90;;;9.80;;
68353;SDS011;55274;43.060;25.618;2023-12-22T05:31:15;23.80;;;9.13;;
68353;SDS011;55274;43.060;25.618;2023-12-22T05:33:42;27.15;;;9.85;;
68353;SDS011;55274;43.060;25.618;2023-12-22T05:36:08;31.10;;;10.93;;
68353;SDS011;55274;43.060;25.618;2023-12-22T05:38:39;32.53;;;10.05;;
68353;SDS011;55274;43.060;25.618;2023-12-22T05:43:31;23.45;;;9.45;;
68353;SDS011;55274;43.060;25.618;2023-12-22T05:45:58;37.67;;;9.88;;
68353;SDS011;55274;43.060;25.618;2023-12-22T05:48:25;39.97;;;10.82;;
68353;SDS011;55274;43.060;25.618;2023-12-22T05:50:51;31.23;;;9.98;;
68353;SDS011;55274;43.060;25.618;2023-12-22T05:53:17;62.92;;;13.38;;
68353;SDS011;55274;43.060;25.618;2023-12-22T05:55:42;38.13;;;11.85;;
68353;SDS011;55274;43.060;25.618;2023-12-22T05:58:08;40.47;;;10.13;;
68353;SDS011;55274;43.060;25.618;2023-12-22T06:00:34;35.33;;;12.73;;
68353;SDS011;55274;43.060;25.618;2023-12-22T06:03:01;33.88;;;12.10;;
68353;SDS011;55274;43.060;25.618;2023-12-22T06:05:26;25.00;;;9.85;;
68353;SDS011;55274;43.060;25.618;2023-12-22T06:07:55;19.45;;;9.25;;
68353;SDS011;55274;43.060;25.618;2023-12-22T06:10:21;23.02;;;10.18;;
68353;SDS011;55274;43.060;25.618;2023-12-22T06:12:47;27.92;;;10.23;;
68353;SDS011;55274;43.060;25.618;2023-12-22T06:15:12;25.17;;;9.88;;
68353;SDS011;55274;43.060;25.618;2023-12-22T06:17:38;30.58;;;11.52;;
68353;SDS011;55274;43.060;25.618;2023-12-22T06:20:04;27.52;;;10.90;;
68353;SDS011;55274;43.060;25.618;2023-12-22T06:22:30;39.90;;;10.93;;
68353;SDS011;55274;43.060;25.618;2023-12-22T06:24:57;24.83;;;10.45;;
68353;SDS011;55274;43.060;25.618;2023-12-22T06:27:23;24.50;;;10.40;;
68353;SDS011;55274;43.060;25.618;2023-12-22T06:29:50;26.30;;;10.35;;
68353;SDS011;55274;43.060;25.618;2023-12-22T06:32:16;31.52;;;11.13;;
68353;SDS011;55274;43.060;25.618;2023-12-22T06:34:42;27.98;;;10.48;;
68353;SDS011;55274;43.060;25.618;2023-12-22T06:37:08;29.48;;;10.63;;
68353;SDS011;55274;43.060;25.618;2023-12-22T06:39:36;35.38;;;10.43;;
68353;SDS011;55274;43.060;25.618;2023-12-22T06:42:01;30.45;;;10.75;;
68353;SDS011;55274;43.060;25.618;2023-12-22T06:44:28;25.80;;;10.55;;
68353;SDS011;55274;43.060;25.618;2023-12-22T06:46:56;31.25;;;11.25;;
68353;SDS011;55274;43.060;25.618;2023-12-22T06:49:22;28.40;;;11.40;;
68353;SDS011;55274;43.060;25.618;2023-12-22T06:51:48;27.77;;;11.57;;
68353;SDS011;55274;43.060;25.618;2023-12-22T06:54:13;27.75;;;11.02;;
68353;SDS011;55274;43.060;25.618;2023-12-22T06:56:39;26.73;;;11.32;;
68353;SDS011;55274;43.060;25.618;2023-12-22T06:59:05;34.78;;;12.02;;
68353;SDS011;55274;43.060;25.618;2023-12-22T07:01:32;33.10;;;12.13;;
68353;SDS011;55274;43.060;25.618;2023-12-22T07:03:59;36.03;;;12.15;;
68353;SDS011;55274;43.060;25.618;2023-12-22T07:06:27;32.60;;;11.55;;
68353;SDS011;55274;43.060;25.618;2023-12-22T07:11:43;29.05;;;11.25;;
68353;SDS011;55274;43.060;25.618;2023-12-22T07:14:16;28.63;;;12.98;;
68353;SDS011;55274;43.060;25.618;2023-12-22T07:16:42;29.77;;;13.38;;
68353;SDS011;55274;43.060;25.618;2023-12-22T07:19:08;28.95;;;12.77;;
68353;SDS011;55274;43.060;25.618;2023-12-22T07:21:36;29.23;;;13.70;;
68353;SDS011;55274;43.060;25.618;2023-12-22T07:24:01;34.25;;;13.13;;
68353;SDS011;55274;43.060;25.618;2023-12-22T07:26:27;29.98;;;12.85;;
68353;SDS011;55274;43.060;25.618;2023-12-22T07:28:53;31.13;;;12.90;;
68353;SDS011;55274;43.060;25.618;2023-12-22T07:31:19;32.70;;;12.13;;
68353;SDS011;55274;43.060;25.618;2023-12-22T07:33:45;35.65;;;12.88;;
68353;SDS011;55274;43.060;25.618;2023-12-22T07:36:11;35.38;;;12.40;;
68353;SDS011;55274;43.060;25.618;2023-12-22T07:38:37;35.33;;;14.85;;
68353;SDS011;55274;43.060;25.618;2023-12-22T07:41:06;48.92;;;15.02;;
68353;SDS011;55274;43.060;25.618;2023-12-22T07:43:32;32.75;;;13.43;;
68353;SDS011;55274;43.060;25.618;2023-12-22T07:45:58;38.45;;;15.38;;
68353;SDS011;55274;43.060;25.618;2023-12-22T07:48:24;38.30;;;15.27;;
68353;SDS011;55274;43.060;25.618;2023-12-22T07:50:50;36.42;;;15.88;;
68353;SDS011;55274;43.060;25.618;2023-12-22T07:53:16;37.20;;;15.57;;
68353;SDS011;55274;43.060;25.618;2023-12-22T07:55:43;42.35;;;15.60;;
68353;SDS011;55274;43.060;25.618;2023-12-22T07:58:09;41.50;;;15.25;;
68353;SDS011;55274;43.060;25.618;2023-12-22T08:00:35;40.30;;;16.38;;
68353;SDS011;55274;43.060;25.618;2023-12-22T08:03:01;40.88;;;16.77;;
68353;SDS011;55274;43.060;25.618;2023-12-22T08:05:27;45.33;;;16.65;;
68353;SDS011;55274;43.060;25.618;2023-12-22T08:07:53;40.25;;;16.73;;
68353;SDS011;55274;43.060;25.618;2023-12-22T08:10:19;41.08;;;16.42;;
68353;SDS011;55274;43.060;25.618;2023-12-22T08:12:44;44.95;;;17.70;;
68353;SDS011;55274;43.060;25.618;2023-12-22T08:15:10;39.80;;;17.65;;
68353;SDS011;55274;43.060;25.618;2023-12-22T08:17:36;50.03;;;19.90;;
68353;SDS011;55274;43.060;25.618;2023-12-22T08:20:05;39.90;;;17.90;;
68353;SDS011;55274;43.060;25.618;2023-12-22T08:22:33;37.58;;;16.20;;
68353;SDS011;55274;43.060;25.618;2023-12-22T08:24:59;45.58;;;17.23;;
68353;SDS011;55274;43.060;25.618;2023-12-22T08:27:25;49.08;;;18.45;;
68353;SDS011;55274;43.060;25.618;2023-12-22T08:29:50;47.28;;;16.17;;
68353;SDS011;55274;43.060;25.618;2023-12-22T08:32:16;44.65;;;18.13;;
68353;SDS011;55274;43.060;25.618;2023-12-22T08:34:42;50.38;;;20.20;;
68353;SDS011;55274;43.060;25.618;2023-12-22T08:37:07;45.80;;;16.83;;
68353;SDS011;55274;43.060;25.618;2023-12-22T08:39:33;41.05;;;17.13;;
68353;SDS011;55274;43.060;25.618;2023-12-22T08:41:59;53.95;;;16.73;;
68353;SDS011;55274;43.060;25.618;2023-12-22T08:44:25;46.17;;;18.85;;
68353;SDS011;55274;43.060;25.618;2023-12-22T08:46:50;44.03;;;19.25;;
68353;SDS011;55274;43.060;25.618;2023-12-22T08:49:16;47.47;;;19.52;;
68353;SDS011;55274;43.060;25.618;2023-12-22T08:51:42;49.38;;;19.73;;
68353;SDS011;55274;43.060;25.618;2023-12-22T08:54:08;43.40;;;18.73;;
68353;SDS011;55274;43.060;25.618;2023-12-22T08:56:33;50.08;;;18.77;;
68353;SDS011;55274;43.060;25.618;2023-12-22T08:59:00;45.28;;;19.00;;
68353;SDS011;55274;43.060;25.618;2023-12-22T09:01:26;41.72;;;18.08;;
68353;SDS011;55274;43.060;25.618;2023-12-22T09:03:52;45.85;;;17.30;;
68353;SDS011;55274;43.060;25.618;2023-12-22T09:06:18;43.28;;;19.08;;
68353;SDS011;55274;43.060;25.618;2023-12-22T09:08:47;45.40;;;18.52;;
68353;SDS011;55274;43.060;25.618;2023-12-22T09:11:15;46.65;;;18.67;;
68353;SDS011;55274;43.060;25.618;2023-12-22T09:13:42;52.25;;;18.52;;
68353;SDS011;55274;43.060;25.618;2023-12-22T09:16:09;48.03;;;18.80;;
68353;SDS011;55274;43.060;25.618;2023-12-22T09:18:35;52.03;;;18.77;;
68353;SDS011;55274;43.060;25.618;2023-12-22T09:21:01;59.97;;;19.75;;
68353;SDS011;55274;43.060;25.618;2023-12-22T09:23:28;53.05;;;20.15;;
68353;SDS011;55274;43.060;25.618;2023-12-22T09:25:54;44.65;;;18.67;;
68353;SDS011;55274;43.060;25.618;2023-12-22T09:28:20;55.95;;;20.17;;
68353;SDS011;55274;43.060;25.618;2023-12-22T09:30:45;46.65;;;19.15;;
68353;SDS011;55274;43.060;25.618;2023-12-22T09:33:11;47.83;;;18.85;;
68353;SDS011;55274;43.060;25.618;2023-12-22T09:35:37;47.83;;;19.70;;
68353;SDS011;55274;43.060;25.618;2023-12-22T09:38:07;56.72;;;19.73;;
68353;SDS011;55274;43.060;25.618;2023-12-22T09:40:35;56.55;;;21.05;;
68353;SDS011;55274;43.060;25.618;2023-12-22T09:43:02;57.38;;;19.92;;
68353;SDS011;55274;43.060;25.618;2023-12-22T09:45:30;48.30;;;19.15;;
68353;SDS011;55274;43.060;25.618;2023-12-22T09:47:58;49.97;;;19.15;;
68353;SDS011;55274;43.060;25.618;2023-12-22T09:50:29;54.13;;;20.00;;
68353;SDS011;55274;43.060;25.618;2023-12-22T09:52:56;54.88;;;19.85;;
68353;SDS011;55274;43.060;25.618;2023-12-22T09:55:22;52.15;;;19.90;;
68353;SDS011;55274;43.060;25.618;2023-12-22T09:57:49;44.20;;;18.92;;
68353;SDS011;55274;43.060;25.618;2023-12-22T10:00:16;54.17;;;20.58;;
68353;SDS011;55274;43.060;25.618;2023-12-22T10:02:43;49.50;;;19.65;;
68353;SDS011;55274;43.060;25.618;2023-12-22T10:05:12;52.22;;;20.45;;
68353;SDS011;55274;43.060;25.618;2023-12-22T10:07:39;61.10;;;20.10;;
68353;SDS011;55274;43.060;25.618;2023-12-22T10:10:07;54.20;;;19.75;;
68353;SDS011;55274;43.060;25.618;2023-12-22T10:12:33;48.05;;;20.85;;
68353;SDS011;55274;43.060;25.618;2023-12-22T10:15:00;52.58;;;20.70;;
68353;SDS011;55274;43.060;25.618;2023-12-22T10:17:26;58.40;;;22.45;;
68353;SDS011;55274;43.060;25.618;2023-12-22T10:19:52;64.97;;;21.10;;
68353;SDS011;55274;43.060;25.618;2023-12-22T10:22:18;58.15;;;21.35;;
68353;SDS011;55274;43.060;25.618;2023-12-22T10:24:44;59.15;;;21.73;;
68353;SDS011;55274;43.060;25.618;2023-12-22T10:27:16;61.65;;;22.67;;
68353;SDS011;55274;43.060;25.618;2023-12-22T10:29:48;60.10;;;23.30;;
68353;SDS011;55274;43.060;25.618;2023-12-22T10:32:14;59.63;;;23.13;;
68353;SDS011;55274;43.060;25.618;2023-12-22T10:34:40;53.05;;;22.42;;
68353;SDS011;55274;43.060;25.618;2023-12-22T10:37:06;60.40;;;22.88;;
68353;SDS011;55274;43.060;25.618;2023-12-22T10:39:32;64.13;;;25.63;;
68353;SDS011;55274;43.060;25.618;2023-12-22T10:42:00;64.45;;;24.25;;
68353;SDS011;55274;43.060;25.618;2023-12-22T10:44:27;56.42;;;22.98;;
68353;SDS011;55274;43.060;25.618;2023-12-22T10:46:54;53.83;;;20.30;;
68353;SDS011;55274;43.060;25.618;2023-12-22T10:49:21;42.30;;;16.35;;
68353;SDS011;55274;43.060;25.618;2023-12-22T10:51:47;39.55;;;16.75;;
68353;SDS011;55274;43.060;25.618;2023-12-22T10:54:13;45.85;;;17.27;;
68353;SDS011;55274;43.060;25.618;2023-12-22T10:56:39;35.15;;;15.20;;
68353;SDS011;55274;43.060;25.618;2023-12-22T10:59:05;16.70;;;7.00;;
68353;SDS011;55274;43.060;25.618;2023-12-22T11:01:32;24.90;;;13.20;;
68353;SDS011;55274;43.060;25.618;2023-12-22T11:04:02;25.63;;;10.40;;
68353;SDS011;55274;43.060;25.618;2023-12-22T11:06:30;7.60;;;1.77;;
68353;SDS011;55274;43.060;25.618;2023-12-22T11:09:09;14.02;;;7.15;;
68353;SDS011;55274;43.060;25.618;2023-12-22T11:11:38;28.67;;;12.63;;
68353;SDS011;55274;43.060;25.618;2023-12-22T11:14:06;21.20;;;9.32;;
68353;SDS011;55274;43.060;25.618;2023-12-22T11:16:33;6.40;;;2.55;;
68353;SDS011;55274;43.060;25.618;2023-12-22T11:19:00;8.95;;;3.63;;
68353;SDS011;55274;43.060;25.618;2023-12-22T11:21:26;3.42;;;1.58;;
68353;SDS011;55274;43.060;25.618;2023-12-22T11:23:53;8.85;;;2.45;;
68353;SDS011;55274;43.060;25.618;2023-12-22T11:26:20;18.23;;;7.53;;
68353;SDS011;55274;43.060;25.618;2023-12-22T11:28:48;12.68;;;4.25;;
68353;SDS011;55274;43.060;25.618;2023-12-22T11:31:16;19.73;;;6.93;;
68353;SDS011;55274;43.060;25.618;2023-12-22T11:33:46;13.30;;;4.30;;
68353;SDS011;55274;43.060;25.618;2023-12-22T11:36:13;13.98;;;4.60;;
68353;SDS011;55274;43.060;25.618;2023-12-22T11:38:46;17.80;;;5.82;;
68353;SDS011;55274;43.060;25.618;2023-12-22T11:41:13;27.35;;;10.30;;
68353;SDS011;55274;43.060;25.618;2023-12-22T11:43:43;39.20;;;10.75;;
68353;SDS011;55274;43.060;25.618;2023-12-22T11:46:10;24.13;;;10.73;;
68353;SDS011;55274;43.060;25.618;2023-12-22T11:48:36;27.02;;;11.55;;
68353;SDS011;55274;43.060;25.618;2023-12-22T11:51:11;31.10;;;17.98;;
68353;SDS011;55274;43.060;25.618;2023-12-22T11:53:41;30.55;;;17.05;;
68353;SDS011;55274;43.060;25.618;2023-12-22T11:56:08;17.58;;;4.63;;
68353;SDS011;55274;43.060;25.618;2023-12-22T11:58:47;24.95;;;10.90;;
68353;SDS011;55274;43.060;25.618;2023-12-22T12:01:21;19.83;;;9.98;;
68353;SDS011;55274;43.060;25.618;2023-12-22T12:03:55;26.50;;;14.98;;
68353;SDS011;55274;43.060;25.618;2023-12-22T12:08:54;20.35;;;6.82;;
68353;SDS011;55274;43.060;25.618;2023-12-22T12:14:19;10.65;;;7.30;;
68353;SDS011;55274;43.060;25.618;2023-12-22T12:16:48;7.00;;;2.55;;
68353;SDS011;55274;43.060;25.618;2023-12-22T12:19:14;6.63;;;2.03;;
68353;SDS011;55274;43.060;25.618;2023-12-22T12:21:40;6.80;;;2.70;;
68353;SDS011;55274;43.060;25.618;2023-12-22T12:24:06;17.60;;;3.55;;
68353;SDS011;55274;43.060;25.618;2023-12-22T12:26:34;4.57;;;2.05;;
68353;SDS011;55274;43.060;25.618;2023-12-22T12:29:00;8.82;;;2.05;;
68353;SDS011;55274;43.060;25.618;2023-12-22T12:31:37;11.45;;;2.88;;
68353;SDS011;55274;43.060;25.618;2023-12-22T12:34:04;32.28;;;7.93;;
68353;SDS011;55274;43.060;25.618;2023-12-22T12:36:30;5.72;;;2.15;;
68353;SDS011;55274;43.060;25.618;2023-12-22T12:41:32;8.68;;;3.95;;
68353;SDS011;55274;43.060;25.618;2023-12-22T12:44:05;6.32;;;2.58;;
68353;SDS011;55274;43.060;25.618;2023-12-22T12:46:38;24.45;;;4.97;;
68353;SDS011;55274;43.060;25.618;2023-12-22T12:49:05;13.55;;;3.00;;
68353;SDS011;55274;43.060;25.618;2023-12-22T12:51:35;9.80;;;1.73;;
68353;SDS011;55274;43.060;25.618;2023-12-22T12:54:03;13.77;;;1.80;;
68353;SDS011;55274;43.060;25.618;2023-12-22T12:56:35;17.58;;;2.10;;
68353;SDS011;55274;43.060;25.618;2023-12-22T12:59:11;8.18;;;2.53;;
68353;SDS011;55274;43.060;25.618;2023-12-22T13:01:43;19.23;;;4.90;;
68353;SDS011;55274;43.060;25.618;2023-12-22T13:04:11;18.75;;;6.47;;
68353;SDS011;55274;43.060;25.618;2023-12-22T13:06:44;23.95;;;8.10;;
68353;SDS011;55274;43.060;25.618;2023-12-22T13:09:11;19.80;;;6.38;;
68353;SDS011;55274;43.060;25.618;2023-12-22T13:11:41;18.70;;;3.78;;
68353;SDS011;55274;43.060;25.618;2023-12-22T13:14:11;10.23;;;3.00;;
68353;SDS011;55274;43.060;25.618;2023-12-22T13:16:46;12.63;;;2.28;;
68353;SDS011;55274;43.060;25.618;2023-12-22T13:19:13;19.27;;;6.00;;
68353;SDS011;55274;43.060;25.618;2023-12-22T13:21:39;9.55;;;2.00;;
68353;SDS011;55274;43.060;25.618;2023-12-22T13:24:08;22.90;;;9.15;;
68353;SDS011;55274;43.060;25.618;2023-12-22T13:26:39;19.25;;;8.35;;
68353;SDS011;55274;43.060;25.618;2023-12-22T13:29:06;29.63;;;10.68;;
68353;SDS011;55274;43.060;25.618;2023-12-22T13:31:32;14.05;;;4.82;;
68353;SDS011;55274;43.060;25.618;2023-12-22T13:34:01;5.90;;;2.65;;
68353;SDS011;55274;43.060;25.618;2023-12-22T13:36:27;9.10;;;2.78;;
68353;SDS011;55274;43.060;25.618;2023-12-22T13:39:14;5.65;;;1.42;;
68353;SDS011;55274;43.060;25.618;2023-12-22T13:41:41;3.92;;;1.55;;
68353;SDS011;55274;43.060;25.618;2023-12-22T13:44:10;20.30;;;7.32;;
68353;SDS011;55274;43.060;25.618;2023-12-22T13:46:37;10.02;;;3.50;;
68353;SDS011;55274;43.060;25.618;2023-12-22T13:49:06;14.25;;;6.38;;
68353;SDS011;55274;43.060;25.618;2023-12-22T13:51:41;16.55;;;6.63;;
68353;SDS011;55274;43.060;25.618;2023-12-22T13:54:08;16.42;;;6.50;;
68353;SDS011;55274;43.060;25.618;2023-12-22T13:56:34;13.85;;;2.33;;
68353;SDS011;55274;43.060;25.618;2023-12-22T13:59:01;16.25;;;6.65;;
68353;SDS011;55274;43.060;25.618;2023-12-22T14:01:28;8.23;;;3.67;;
68353;SDS011;55274;43.060;25.618;2023-12-22T14:03:53;8.50;;;2.13;;
68353;SDS011;55274;43.060;25.618;2023-12-22T14:06:20;21.67;;;6.57;;
68353;SDS011;55274;43.060;25.618;2023-12-22T14:08:46;19.42;;;5.22;;
68353;SDS011;55274;43.060;25.618;2023-12-22T14:11:11;11.00;;;4.32;;
68353;SDS011;55274;43.060;25.618;2023-12-22T14:13:38;14.15;;;3.42;;
68353;SDS011;55274;43.060;25.618;2023-12-22T14:16:08;17.48;;;2.53;;
68353;SDS011;55274;43.060;25.618;2023-12-22T14:18:34;9.68;;;1.63;;
68353;SDS011;55274;43.060;25.618;2023-12-22T14:21:00;14.02;;;3.08;;
68353;SDS011;55274;43.060;25.618;2023-12-22T14:23:26;33.63;;;3.35;;
68353;SDS011;55274;43.060;25.618;2023-12-22T14:25:52;22.85;;;3.30;;